Time;durP1;ratioP1;P1;durP2;ratioP2;P2;SDS_P1;SDS_P2;PMS_P1;PMS_P2;Temp;Humidity;BMP_temperature;BMP_pressure;BME280_temperature;BME280_humidity;BME280_pressure;Samples;Min_cycle;Max_cycle;Signal;HPM_P1;HPM_P2
2023/06/18 00:01:11;;;;;;;;;20.25;20.25;;;;;27.89;39.14;100394.28;5029511;28;29696;-53
2023/06/18 00:03:36;;;;;;;;;21.40;19.20;;;;;27.86;39.07;100380.88;5028968;28;30694;-55
2023/06/18 00:06:01;;;;;;;;;21.00;19.50;;;;;27.88;39.14;100387.00;5029208;28;29858;-53
2023/06/18 00:08:27;;;;;;;;;19.75;18.50;;;;;27.83;39.38;100370.28;5029060;28;29955;-54
2023/06/18 00:10:52;;;;;;;;;18.00;18.00;;;;;27.85;38.93;100371.59;5029460;28;29127;-57
2023/06/18 00:13:18;;;;;;;;;20.25;19.00;;;;;27.87;39.19;100382.53;5029224;28;30168;-55
2023/06/18 00:15:43;;;;;;;;;20.25;20.25;;;;;27.85;39.20;100370.78;5028918;28;29612;-57
2023/06/18 00:18:09;;;;;;;;;21.00;20.50;;;;;27.80;39.16;100360.50;5028358;28;29917;-58
2023/06/18 00:20:35;;;;;;;;;21.40;20.00;;;;;27.77;39.21;100371.63;5028804;28;30236;-57
2023/06/18 00:23:01;;;;;;;;;22.25;19.00;;;;;27.73;39.23;100361.03;5029277;28;29816;-55
2023/06/18 00:25:27;;;;;;;;;20.25;18.75;;;;;27.78;39.54;100360.03;5027545;28;29675;-57
2023/06/18 00:27:52;;;;;;;;;18.00;17.75;;;;;27.84;39.20;100374.75;5029437;28;29708;-53
2023/06/18 00:30:18;;;;;;;;;23.25;21.00;;;;;27.87;39.51;100368.44;5029638;28;28827;-57
2023/06/18 00:32:46;;;;;;;;;26.00;18.25;;;;;27.90;39.55;100370.56;5027384;28;30163;-58
2023/06/18 00:35:12;;;;;;;;;18.80;18.80;;;;;27.92;39.32;100359.78;5028629;28;29658;-56
2023/06/18 00:37:39;;;;;;;;;22.00;19.25;;;;;27.88;39.42;100361.63;5027613;28;29847;-57
2023/06/18 00:40:05;;;;;;;;;22.60;19.00;;;;;27.91;39.61;100375.06;5027349;28;29368;-54
2023/06/18 00:42:31;;;;;;;;;19.80;17.80;;;;;27.90;39.34;100384.66;5006475;28;30965;-54
2023/06/18 00:44:57;;;;;;;;;19.75;18.75;;;;;27.87;39.49;100386.16;5025042;28;29931;-52
2023/06/18 00:47:23;;;;;;;;;16.80;15.00;;;;;27.92;39.90;100395.59;5025527;28;29307;-57
2023/06/18 00:49:50;;;;;;;;;20.25;19.50;;;;;27.88;39.99;100378.53;5028950;28;29662;-56
2023/06/18 00:52:15;;;;;;;;;20.00;20.00;;;;;27.94;40.02;100399.75;5027643;28;30641;-55
2023/06/18 00:54:42;;;;;;;;;19.75;19.25;;;;;27.88;39.82;100398.28;5027520;28;29734;-59
2023/06/18 00:57:08;;;;;;;;;23.00;21.40;;;;;27.91;39.96;100420.19;5027683;28;29989;-56
2023/06/18 00:59:34;;;;;;;;;21.75;21.75;;;;;27.83;40.16;100421.03;5027398;28;29710;-56
2023/06/18 01:02:00;;;;;;;;;18.00;18.00;;;;;27.67;40.82;100415.09;5027266;28;29717;-54
2023/06/18 01:04:27;;;;;;;;;22.00;20.20;;;;;27.65;42.29;100438.00;5028486;28;30207;-55
2023/06/18 01:06:53;;;;;;;;;21.40;21.00;;;;;27.52;46.59;100439.00;5027316;28;29471;-58
2023/06/18 01:09:22;;;;;;;;;22.20;21.60;;;;;27.37;48.02;100440.38;5028336;28;29806;-54
2023/06/18 01:11:51;;;;;;;;;25.20;23.00;;;;;27.17;49.92;100432.25;5028416;28;29920;-55
2023/06/18 01:14:27;;;;;;;;;18.20;18.20;;;;;27.00;50.17;100430.28;5027077;28;29650;-52
2023/06/18 01:16:56;;;;;;;;;17.20;16.40;;;;;26.89;51.11;100424.13;5010889;28;29690;-54
2023/06/18 01:19:30;;;;;;;;;23.60;22.00;;;;;26.85;50.22;100419.50;5028617;28;29746;-55
2023/06/18 01:22:01;;;;;;;;;17.40;16.60;;;;;26.81;51.30;100422.16;5028547;28;29872;-55
2023/06/18 01:24:29;;;;;;;;;18.80;17.60;;;;;26.86;51.41;100449.28;5026464;28;29358;-54
2023/06/18 01:26:57;;;;;;;;;19.80;14.60;;;;;26.79;52.10;100428.09;5027303;28;29354;-55
2023/06/18 01:29:26;;;;;;;;;13.20;12.40;;;;;26.85;50.41;100422.31;5028593;28;29437;-57
2023/06/18 01:31:52;;;;;;;;;17.80;15.80;;;;;26.86;51.59;100407.91;5010963;28;30073;-53
2023/06/18 01:34:17;;;;;;;;;12.75;11.50;;;;;26.82;49.87;100383.56;5028203;28;29345;-59
2023/06/18 01:36:47;;;;;;;;;13.75;13.75;;;;;26.79;50.78;100388.69;5027440;28;39057;-55
2023/06/18 01:39:18;;;;;;;;;16.40;16.00;;;;;26.78;51.24;100372.97;5022255;28;44822;-55
2023/06/18 01:41:43;;;;;;;;;17.40;16.40;;;;;26.77;50.50;100374.13;5026767;28;30818;-56
2023/06/18 01:44:12;;;;;;;;;18.25;16.00;;;;;26.60;51.12;100363.69;5023530;28;44586;-57
2023/06/18 01:46:38;;;;;;;;;18.60;15.00;;;;;26.69;51.57;100380.59;5024329;28;45232;-57
2023/06/18 01:49:04;;;;;;;;;14.40;14.40;;;;;26.55;51.12;100371.47;5019712;28;45287;-53
2023/06/18 01:51:30;;;;;;;;;16.00;15.20;;;;;26.64;51.98;100387.19;5003392;28;45469;-51
2023/06/18 01:53:56;;;;;;;;;15.60;13.00;;;;;26.62;51.98;100386.69;5029758;28;44204;-56
2023/06/18 01:56:23;;;;;;;;;17.00;16.00;;;;;26.70;51.58;100387.88;5031486;28;29855;-58
2023/06/18 01:58:49;;;;;;;;;18.20;16.80;;;;;26.65;51.59;100380.44;5031315;28;38470;-57
2023/06/18 02:01:14;;;;;;;;;17.00;15.00;;;;;26.74;51.54;100388.03;5022171;28;45396;-54
2023/06/18 02:03:40;;;;;;;;;14.25;13.50;;;;;26.77;51.84;100387.38;4999873;28;44762;-57
2023/06/18 02:06:05;;;;;;;;;16.00;15.25;;;;;26.76;51.48;100396.97;5026197;28;44798;-56
2023/06/18 02:08:31;;;;;;;;;16.00;14.00;;;;;26.75;51.73;100390.53;5031099;28;42343;-54
2023/06/18 02:10:57;;;;;;;;;14.50;13.25;;;;;26.56;51.56;100390.84;5031464;28;30226;-56
2023/06/18 02:13:22;;;;;;;;;12.00;10.75;;;;;26.50;51.14;100401.44;5031683;28;29174;-54
2023/06/18 02:15:48;;;;;;;;;19.25;15.00;;;;;26.47;51.43;100409.69;5028606;28;45268;-57
2023/06/18 02:18:13;;;;;;;;;15.00;15.00;;;;;26.52;51.33;100412.38;5027167;28;44627;-56
2023/06/18 02:20:39;;;;;;;;;16.00;14.25;;;;;26.43;51.59;100406.72;5028567;28;44767;-54
2023/06/18 02:23:05;;;;;;;;;12.80;12.80;;;;;26.58;50.70;100411.06;5030593;28;43030;-56
2023/06/18 02:25:32;;;;;;;;;14.75;13.25;;;;;26.64;51.02;100408.88;5030176;28;42113;-58
2023/06/18 02:28:01;;;;;;;;;14.20;14.00;;;;;26.68;51.80;100400.63;5030489;28;42089;-52
2023/06/18 02:30:29;;;;;;;;;18.00;16.20;;;;;26.73;52.64;100390.00;5031344;28;29879;-54
2023/06/18 02:32:54;;;;;;;;;20.00;17.80;;;;;26.75;52.44;100389.69;5030532;28;29790;-57
2023/06/18 02:35:21;;;;;;;;;16.20;13.60;;;;;26.71;52.51;100381.09;5031629;28;29681;-56
2023/06/18 02:37:46;;;;;;;;;17.20;16.40;;;;;26.67;52.67;100380.06;5030670;28;29311;-57
2023/06/18 02:40:14;;;;;;;;;16.50;15.50;;;;;26.76;51.57;100380.09;5030809;28;29877;-57
2023/06/18 02:42:46;;;;;;;;;14.00;13.60;;;;;26.74;51.87;100373.97;5045639;28;29794;-56
2023/06/18 02:45:16;;;;;;;;;17.20;15.40;;;;;26.82;51.56;100386.41;5030782;28;29648;-55
2023/06/18 02:47:42;;;;;;;;;15.80;15.00;;;;;26.79;51.23;100385.88;5030809;28;29230;-57
2023/06/18 02:50:08;;;;;;;;;16.40;15.60;;;;;26.74;51.33;100388.03;5029564;28;30760;-55
2023/06/18 02:52:33;;;;;;;;;15.50;14.25;;;;;26.77;50.69;100381.72;5028839;28;45252;-57
2023/06/18 02:54:59;;;;;;;;;17.00;17.00;;;;;26.77;50.96;100385.38;5029076;28;38662;-56
2023/06/18 02:57:25;;;;;;;;;19.75;17.00;;;;;26.76;51.41;100377.28;5030406;28;29752;-57
2023/06/18 02:59:50;;;;;;;;;18.50;16.50;;;;;26.75;50.48;100389.69;5030362;28;29694;-57
2023/06/18 03:02:16;;;;;;;;;18.00;16.25;;;;;26.76;50.75;100386.56;5029070;28;45810;-56
2023/06/18 03:04:41;;;;;;;;;19.75;15.00;;;;;26.75;51.04;100389.69;5030452;28;29159;-57
2023/06/18 03:07:07;;;;;;;;;15.25;15.25;;;;;26.77;51.08;100398.63;5030311;28;29492;-58
2023/06/18 03:09:32;;;;;;;;;18.00;18.00;;;;;26.73;52.06;100395.63;5030325;28;30356;-56
2023/06/18 03:11:57;;;;;;;;;17.25;17.25;;;;;26.74;52.13;100393.66;5029926;28;29699;-54
2023/06/18 03:14:24;;;;;;;;;19.75;19.75;;;;;26.74;52.22;100385.22;5029255;28;29223;-53
2023/06/18 03:16:50;;;;;;;;;18.60;18.60;;;;;26.64;51.46;100372.31;5029891;28;29323;-56
2023/06/18 03:19:15;;;;;;;;;19.00;18.50;;;;;26.63;50.44;100390.34;5029106;28;42960;-56
2023/06/18 03:21:41;;;;;;;;;17.75;16.75;;;;;26.54;51.08;100393.16;5029866;28;29794;-56
2023/06/18 03:24:06;;;;;;;;;19.75;17.50;;;;;26.44;50.48;100399.09;5030335;28;29326;-55
2023/06/18 03:26:36;;;;;;;;;17.25;17.25;;;;;26.49;50.51;100410.19;5030125;28;29530;-58
2023/06/18 03:29:04;;;;;;;;;15.60;15.60;;;;;26.46;50.19;100405.25;5029708;28;29911;-57
2023/06/18 03:31:31;;;;;;;;;14.40;14.40;;;;;26.44;50.09;100401.91;5028384;28;29955;-56
2023/06/18 03:34:01;;;;;;;;;12.80;12.80;;;;;26.39;49.81;100412.19;5029630;28;29691;-58
2023/06/18 03:36:30;;;;;;;;;14.00;14.00;;;;;26.33;49.39;100407.84;5028631;28;29585;-58
2023/06/18 03:38:56;;;;;;;;;11.80;10.40;;;;;26.37;49.74;100420.09;5030132;28;29453;-56
2023/06/18 03:41:22;;;;;;;;;13.50;13.50;;;;;26.38;49.53;100427.41;5029856;28;29191;-55
2023/06/18 03:43:47;;;;;;;;;12.20;12.20;;;;;26.32;49.44;100419.44;5012026;28;29385;-58
2023/06/18 03:46:13;;;;;;;;;12.00;11.50;;;;;26.25;49.53;100419.94;5029714;28;28855;-57
2023/06/18 03:48:39;;;;;;;;;10.75;10.75;;;;;26.27;49.41;100411.97;5028665;28;29787;-56
2023/06/18 03:51:05;;;;;;;;;9.80;9.60;;;;;26.25;49.43;100412.28;5029452;28;29826;-58
2023/06/18 03:53:36;;;;;;;;;6.25;6.25;;;;;26.15;49.16;100412.59;5029814;28;29913;-53
2023/06/18 03:56:02;;;;;;;;;7.40;7.40;;;;;26.08;49.42;100399.00;5028496;28;29426;-53
2023/06/18 03:58:28;;;;;;;;;6.00;6.00;;;;;26.12;49.26;100408.44;5027933;28;45219;-57
2023/06/18 04:00:53;;;;;;;;;8.25;7.75;;;;;26.01;49.55;100407.06;5044940;28;31168;-55
2023/06/18 04:03:19;;;;;;;;;6.75;6.75;;;;;26.03;49.12;100410.38;5029472;28;29205;-55
2023/06/18 04:05:44;;;;;;;;;5.75;5.00;;;;;26.05;48.98;100407.25;5029402;28;30104;-54
2023/06/18 04:08:10;;;;;;;;;7.00;7.00;;;;;26.05;49.06;100401.63;5028231;28;29687;-61
2023/06/18 04:10:35;;;;;;;;;4.50;4.50;;;;;26.06;49.02;100397.66;5027344;28;43352;-55
2023/06/18 04:13:00;;;;;;;;;7.25;6.00;;;;;26.10;48.59;100393.03;5029611;28;29605;-54
2023/06/18 04:15:26;;;;;;;;;6.00;6.00;;;;;26.06;48.70;100384.44;5027995;28;29459;-54
2023/06/18 04:17:51;;;;;;;;;3.00;3.00;;;;;25.98;48.85;100386.06;5029230;28;29607;-55
2023/06/18 04:20:17;;;;;;;;;5.00;5.00;;;;;25.89;48.70;100375.94;5029112;28;29845;-56
2023/06/18 04:22:42;;;;;;;;;6.50;5.25;;;;;25.89;48.76;100379.59;5029095;28;29473;-57
2023/06/18 04:25:08;;;;;;;;;5.50;5.25;;;;;25.88;49.16;100389.16;5029393;28;29535;-54
2023/06/18 04:27:34;;;;;;;;;3.25;3.25;;;;;25.87;49.08;100389.50;5028930;28;31203;-57
2023/06/18 04:29:59;;;;;;;;;4.00;4.00;;;;;25.93;48.89;100393.81;5029630;28;29326;-56
2023/06/18 04:32:25;;;;;;;;;4.25;4.25;;;;;25.90;48.91;100383.22;5028757;28;29401;-55
2023/06/18 04:34:50;;;;;;;;;3.25;3.25;;;;;25.99;48.79;100396.16;5029147;28;29738;-55
2023/06/18 04:37:16;;;;;;;;;5.00;5.00;;;;;25.96;49.36;100401.59;5027848;28;29600;-55
2023/06/18 04:39:41;;;;;;;;;5.00;5.00;;;;;25.89;49.28;100407.69;5028941;28;30059;-55
2023/06/18 04:42:07;;;;;;;;;3.25;3.25;;;;;25.84;49.70;100408.66;5028864;28;29507;-58
2023/06/18 04:44:32;;;;;;;;;5.25;5.25;;;;;25.91;49.37;100411.00;5044283;28;29723;-58
2023/06/18 04:46:58;;;;;;;;;5.75;4.00;;;;;25.97;49.19;100409.72;5043913;28;31327;-57
2023/06/18 04:49:23;;;;;;;;;4.50;4.50;;;;;25.87;49.01;100403.56;5024147;28;44587;-56
2023/06/18 04:51:49;;;;;;;;;5.00;5.00;;;;;25.95;49.24;100428.06;5028904;28;29537;-56
2023/06/18 04:54:14;;;;;;;;;4.00;4.00;;;;;25.91;49.39;100424.22;5027980;28;29845;-54
2023/06/18 04:56:40;;;;;;;;;5.25;3.50;;;;;25.94;49.24;100435.63;5028345;28;29916;-55
2023/06/18 04:59:06;;;;;;;;;4.00;4.00;;;;;25.89;49.29;100423.72;5027144;28;29579;-55
2023/06/18 05:01:32;;;;;;;;;6.00;5.00;;;;;25.88;49.58;100434.13;5027853;28;32070;-55
2023/06/18 05:03:57;;;;;;;;;4.25;4.25;;;;;25.87;49.67;100429.66;5028511;28;29698;-56
2023/06/18 05:06:22;;;;;;;;;5.00;5.00;;;;;25.88;49.72;100419.25;5028678;28;30845;-55
2023/06/18 05:08:50;;;;;;;;;5.00;5.00;;;;;25.69;49.76;100401.50;5026608;28;29834;-55
2023/06/18 05:11:15;;;;;;;;;7.80;5.00;;;;;25.83;49.70;100428.66;5028517;28;29203;-57
2023/06/18 05:13:40;;;;;;;;;5.75;5.00;;;;;25.80;49.69;100418.91;5002890;28;45828;-57
2023/06/18 05:16:06;;;;;;;;;8.75;6.00;;;;;25.83;49.70;100423.03;5048463;28;30117;-53
2023/06/18 05:18:31;;;;;;;;;6.75;6.75;;;;;25.87;49.62;100421.22;5048476;28;28925;-55
2023/06/18 05:20:57;;;;;;;;;4.00;4.00;;;;;25.96;49.64;100433.34;5046753;28;44805;-53
2023/06/18 05:23:22;;;;;;;;;6.25;5.25;;;;;25.99;49.52;100431.88;5052002;28;29286;-56
2023/06/18 05:25:48;;;;;;;;;5.00;5.00;;;;;25.91;50.21;100425.06;5051570;28;30086;-58
2023/06/18 05:28:13;;;;;;;;;6.25;6.25;;;;;25.75;50.65;100429.44;5051735;28;29473;-54
2023/06/18 05:30:39;;;;;;;;;4.00;4.00;;;;;25.77;50.78;100435.56;5050433;28;29803;-53
2023/06/18 05:33:05;;;;;;;;;6.00;6.00;;;;;25.63;50.89;100433.69;5043250;28;29961;-55
2023/06/18 05:35:30;;;;;;;;;4.50;4.50;;;;;25.71;50.89;100432.06;5031432;28;29863;-55
2023/06/18 05:37:56;;;;;;;;;4.00;4.00;;;;;25.78;50.65;100428.81;5031647;28;29585;-51
2023/06/18 05:40:21;;;;;;;;;7.25;6.00;;;;;25.80;50.52;100437.72;5032173;28;29427;-54
2023/06/18 05:42:47;;;;;;;;;6.50;6.50;;;;;25.81;50.48;100442.19;5031455;28;29728;-52
2023/06/18 05:45:12;;;;;;;;;6.00;5.75;;;;;25.80;50.82;100438.56;5031522;28;28936;-56
2023/06/18 05:47:38;;;;;;;;;5.25;5.25;;;;;25.77;50.62;100439.19;5031483;28;30172;-56
2023/06/18 05:50:03;;;;;;;;;4.75;4.50;;;;;25.74;50.61;100431.44;5046549;28;29830;-56
2023/06/18 05:52:29;;;;;;;;;5.00;5.00;;;;;25.85;50.50;100441.25;5031520;28;29753;-55
2023/06/18 05:54:55;;;;;;;;;8.50;6.50;;;;;25.90;50.74;100445.06;5031371;28;30177;-57
2023/06/18 05:57:20;;;;;;;;;9.00;7.75;;;;;25.81;50.71;100425.34;5031312;28;29142;-56
2023/06/18 05:59:48;;;;;;;;;11.25;8.00;;;;;25.92;50.70;100443.56;5031345;28;29634;-53
2023/06/18 06:02:13;;;;;;;;;7.00;7.00;;;;;25.97;50.99;100449.06;5031389;28;29542;-55
2023/06/18 06:04:39;;;;;;;;;11.00;9.25;;;;;25.91;50.67;100444.72;5031261;28;30125;-56
2023/06/18 06:07:04;;;;;;;;;8.75;8.50;;;;;25.97;50.79;100437.81;5031203;28;29269;-57
2023/06/18 06:09:30;;;;;;;;;8.50;8.50;;;;;25.91;50.75;100439.13;5030527;28;45321;-57
2023/06/18 06:11:55;;;;;;;;;8.75;8.75;;;;;25.99;50.61;100437.50;5031833;28;29377;-54
2023/06/18 06:14:21;;;;;;;;;6.50;6.50;;;;;26.06;50.72;100443.47;5011606;28;29552;-57
2023/06/18 06:16:47;;;;;;;;;7.50;7.50;;;;;26.14;50.52;100444.66;5025377;28;29268;-54
2023/06/18 06:19:12;;;;;;;;;7.25;7.25;;;;;26.20;50.40;100439.72;5029673;28;30079;-53
2023/06/18 06:21:37;;;;;;;;;7.50;7.50;;;;;26.28;50.00;100444.56;5031423;28;29817;-51
2023/06/18 06:24:03;;;;;;;;;10.00;9.00;;;;;26.26;50.08;100430.00;5029572;28;29419;-55
2023/06/18 06:26:29;;;;;;;;;8.75;8.00;;;;;26.25;49.92;100443.22;5031123;28;29994;-56
2023/06/18 06:28:54;;;;;;;;;7.00;7.00;;;;;26.16;49.66;100424.66;5031364;28;29432;-57
2023/06/18 06:31:20;;;;;;;;;7.50;4.25;;;;;26.34;49.89;100433.97;5031872;28;29508;-58
2023/06/18 06:33:46;;;;;;;;;7.25;7.25;;;;;26.25;49.41;100429.16;5030506;28;29148;-57
2023/06/18 06:36:12;;;;;;;;;6.20;6.00;;;;;26.29;49.70;100428.53;5029757;28;30239;-57
2023/06/18 06:38:38;;;;;;;;;8.60;8.60;;;;;26.30;49.53;100422.56;5029861;28;29462;-54
2023/06/18 06:41:03;;;;;;;;;9.00;9.00;;;;;26.33;49.76;100438.78;5031220;28;29388;-54
2023/06/18 06:43:29;;;;;;;;;9.00;9.00;;;;;26.11;50.22;100415.19;5030463;28;30484;-55
2023/06/18 06:45:54;;;;;;;;;9.00;9.00;;;;;26.14;50.51;100421.34;5046378;28;29283;-54
2023/06/18 06:48:20;;;;;;;;;8.50;8.50;;;;;26.22;50.38;100424.22;5030888;28;29477;-57
2023/06/18 06:50:46;;;;;;;;;9.25;9.25;;;;;26.28;50.29;100436.13;5031384;28;29688;-56
2023/06/18 06:53:11;;;;;;;;;6.50;6.50;;;;;26.21;50.26;100425.31;5030744;28;29556;-55
2023/06/18 06:55:37;;;;;;;;;8.25;8.25;;;;;26.30;50.23;100439.44;5030920;28;29768;-55
2023/06/18 06:58:02;;;;;;;;;10.25;9.00;;;;;26.15;50.29;100434.25;5030543;28;29825;-56
2023/06/18 07:00:28;;;;;;;;;9.25;8.00;;;;;26.12;50.43;100430.09;5029457;28;29635;-55
2023/06/18 07:02:53;;;;;;;;;7.75;7.75;;;;;26.14;50.20;100432.59;5045978;28;30034;-53
2023/06/18 07:05:19;;;;;;;;;8.75;8.25;;;;;26.16;50.23;100417.06;5029354;28;29648;-56
2023/06/18 07:07:44;;;;;;;;;10.00;9.00;;;;;26.30;49.89;100433.81;5030416;28;29242;-56
2023/06/18 07:10:10;;;;;;;;;13.25;12.25;;;;;26.34;50.28;100437.63;5029446;28;29575;-53
2023/06/18 07:12:35;;;;;;;;;11.00;9.40;;;;;26.35;50.32;100435.63;5030494;28;30495;-57
2023/06/18 07:15:01;;;;;;;;;13.00;11.50;;;;;26.45;50.06;100440.13;5030594;28;29576;-56
2023/06/18 07:17:27;;;;;;;;;11.25;11.25;;;;;26.44;50.39;100430.03;5045207;28;29494;-55
2023/06/18 07:19:53;;;;;;;;;10.50;10.50;;;;;26.51;49.84;100434.03;5030849;28;29682;-55
2023/06/18 07:22:19;;;;;;;;;13.60;13.60;;;;;26.56;50.16;100427.41;5029854;28;38279;-57
2023/06/18 07:24:44;;;;;;;;;9.75;9.50;;;;;26.58;49.42;100425.13;5030073;28;29473;-55
2023/06/18 07:27:10;;;;;;;;;13.50;12.00;;;;;26.66;49.38;100432.75;5030598;28;29669;-56
2023/06/18 07:29:35;;;;;;;;;11.25;11.25;;;;;26.71;49.38;100434.56;5029110;28;30107;-55
2023/06/18 07:32:01;;;;;;;;;10.25;10.25;;;;;26.75;49.19;100440.34;5008755;28;29913;-56
2023/06/18 07:34:26;;;;;;;;;11.00;11.00;;;;;26.69;48.92;100428.44;5029749;28;29899;-56
2023/06/18 07:36:52;;;;;;;;;12.25;12.25;;;;;26.71;48.62;100431.75;5030037;28;29755;-56
2023/06/18 07:39:17;;;;;;;;;14.00;12.75;;;;;26.74;48.53;100439.50;5030408;28;29798;-56
2023/06/18 07:41:47;;;;;;;;;14.00;12.50;;;;;26.75;48.28;100435.56;5044678;28;30676;-54
2023/06/18 07:44:15;;;;;;;;;9.20;9.20;;;;;26.80;48.43;100426.94;5029065;28;29138;-56
2023/06/18 07:46:42;;;;;;;;;12.20;12.20;;;;;26.82;47.95;100418.16;5044379;28;29723;-56
2023/06/18 07:49:08;;;;;;;;;11.00;11.00;;;;;26.74;48.35;100428.25;5029733;28;29795;-56
2023/06/18 07:51:34;;;;;;;;;12.60;12.60;;;;;26.79;48.04;100427.28;5029795;28;30861;-58
2023/06/18 07:53:59;;;;;;;;;11.00;11.00;;;;;26.89;47.81;100429.75;5028468;28;29744;-57
2023/06/18 07:56:26;;;;;;;;;11.25;9.75;;;;;26.93;47.59;100432.75;5030142;28;29773;-56
2023/06/18 07:58:52;;;;;;;;;13.00;11.00;;;;;26.91;47.42;100432.28;5029617;28;29277;-54
2023/06/18 08:01:17;;;;;;;;;12.25;9.75;;;;;26.94;47.81;100431.59;5028573;28;29358;-56
2023/06/18 08:03:43;;;;;;;;;14.50;12.75;;;;;26.93;47.70;100429.94;5025411;28;31032;-52
2023/06/18 08:06:08;;;;;;;;;12.00;11.75;;;;;26.88;47.77;100411.22;4992377;28;29291;-57
2023/06/18 08:08:34;;;;;;;;;14.25;13.25;;;;;26.95;48.01;100424.84;5033665;28;29313;-57
2023/06/18 08:11:00;;;;;;;;;13.00;11.75;;;;;27.00;47.77;100424.66;5047030;28;30056;-53
2023/06/18 08:13:26;;;;;;;;;10.00;10.00;;;;;27.03;47.28;100411.91;5026096;28;29901;-55
2023/06/18 08:15:51;;;;;;;;;13.00;13.00;;;;;27.23;47.18;100420.81;5029071;28;29817;-57
2023/06/18 08:18:17;;;;;;;;;10.50;10.00;;;;;27.31;47.29;100418.00;5027698;28;29563;-56
2023/06/18 08:20:42;;;;;;;;;12.00;12.00;;;;;27.31;46.67;100423.63;5027799;28;29532;-56
2023/06/18 08:23:08;;;;;;;;;10.50;10.50;;;;;27.16;46.69;100416.53;5027827;28;29898;-54
2023/06/18 08:25:33;;;;;;;;;12.75;11.25;;;;;27.05;46.40;100404.78;5028472;28;29622;-56
2023/06/18 08:27:59;;;;;;;;;14.50;11.75;;;;;27.15;46.81;100412.06;5028503;28;29777;-54
2023/06/18 08:30:24;;;;;;;;;13.75;12.75;;;;;27.22;46.78;100408.75;5028617;28;30640;-55
2023/06/18 08:32:50;;;;;;;;;12.25;12.25;;;;;27.22;46.35;100405.09;5017510;28;30834;-56
2023/06/18 08:35:16;;;;;;;;;10.00;10.00;;;;;27.16;46.59;100408.06;5024308;28;28976;-53
2023/06/18 08:37:42;;;;;;;;;14.25;13.75;;;;;27.10;46.44;100400.94;5028154;28;29149;-59
2023/06/18 08:40:09;;;;;;;;;13.00;13.00;;;;;27.12;46.25;100403.44;5027211;28;30176;-54
2023/06/18 08:42:34;;;;;;;;;15.80;12.60;;;;;27.19;46.27;100398.97;5026803;28;29658;-56
2023/06/18 08:45:00;;;;;;;;;13.25;13.25;;;;;27.15;46.24;100389.53;5008918;28;29455;-57
2023/06/18 08:47:27;;;;;;;;;12.50;12.50;;;;;27.24;45.82;100395.16;5026534;28;29141;-58
2023/06/18 08:49:52;;;;;;;;;14.60;13.20;;;;;27.32;45.50;100399.13;5028011;28;29225;-54
2023/06/18 08:52:19;;;;;;;;;12.75;12.75;;;;;27.28;45.70;100407.41;5026290;28;29381;-58
2023/06/18 08:54:45;;;;;;;;;11.80;11.80;;;;;27.36;45.00;100397.25;5027825;28;29731;-55
2023/06/18 08:57:26;;;;;;;;;14.00;14.00;;;;;27.41;45.38;100385.81;5035277;28;29306;-53
2023/06/18 08:59:51;;;;;;;;;12.80;12.80;;;;;27.43;44.47;100382.69;5046438;28;29897;-56
2023/06/18 09:02:20;;;;;;;;;13.00;12.50;;;;;27.57;44.88;100382.47;5043409;28;29756;-52
2023/06/18 09:04:45;;;;;;;;;13.20;13.20;;;;;27.67;45.02;100381.28;5017868;28;29756;-55
2023/06/18 09:07:12;;;;;;;;;13.00;12.20;;;;;27.73;44.41;100392.06;5029164;28;29875;-55
2023/06/18 09:09:38;;;;;;;;;11.50;11.50;;;;;27.69;44.10;100379.78;5023086;28;31228;-60
2023/06/18 09:12:04;;;;;;;;;13.75;13.75;;;;;27.71;44.31;100382.28;5045627;28;30012;-54
2023/06/18 09:14:29;;;;;;;;;12.50;11.75;;;;;27.85;44.28;100384.88;5028896;28;29698;-56
2023/06/18 09:16:57;;;;;;;;;11.50;11.50;;;;;27.96;44.07;100385.31;5047614;28;29554;-54
2023/06/18 09:19:23;;;;;;;;;13.80;13.60;;;;;27.98;43.49;100382.97;5034408;28;30266;-56
2023/06/18 09:21:49;;;;;;;;;11.80;11.80;;;;;27.97;43.65;100382.13;5025973;28;29171;-59
2023/06/18 09:24:16;;;;;;;;;19.20;15.20;;;;;27.99;44.33;100377.00;5025945;28;29706;-59
2023/06/18 09:26:41;;;;;;;;;15.60;15.20;;;;;27.97;44.21;100382.13;5027223;28;29673;-59
2023/06/18 09:29:09;;;;;;;;;11.75;11.75;;;;;28.01;43.69;100366.19;5026966;28;30136;-58
2023/06/18 09:31:35;;;;;;;;;17.00;15.40;;;;;28.04;43.90;100366.69;5026904;28;29956;-57
2023/06/18 09:34:17;;;;;;;;;17.40;14.40;;;;;28.12;43.85;100361.00;5017355;28;31477;-59
2023/06/18 09:36:45;;;;;;;;;14.00;12.20;;;;;28.13;43.92;100344.91;5036249;28;29137;-59
2023/06/18 09:39:15;;;;;;;;;14.40;14.20;;;;;28.20;43.71;100353.66;5045813;28;30090;-55
2023/06/18 09:41:40;;;;;;;;;13.60;12.20;;;;;28.22;44.41;100354.16;5046851;28;29642;-55
2023/06/18 09:44:07;;;;;;;;;15.75;15.75;;;;;28.31;44.32;100354.09;5045778;28;29219;-58
2023/06/18 09:46:32;;;;;;;;;14.60;14.60;;;;;28.36;44.01;100356.72;5045033;28;29479;-57
2023/06/18 09:48:58;;;;;;;;;16.00;16.00;;;;;28.41;43.95;100344.41;5046909;28;29781;-57
2023/06/18 09:51:25;;;;;;;;;14.75;14.75;;;;;28.61;43.67;100354.06;5045535;28;29285;-57
2023/06/18 09:53:59;;;;;;;;;17.20;16.60;;;;;28.73;43.88;100355.25;5047148;28;29872;-61
2023/06/18 09:56:25;;;;;;;;;16.40;16.40;;;;;28.79;43.22;100365.19;5046726;28;29774;-56
2023/06/18 09:58:50;;;;;;;;;18.25;16.00;;;;;28.78;43.67;100358.72;5045232;28;29305;-59
2023/06/18 10:01:17;;;;;;;;;16.75;16.75;;;;;28.82;43.53;100356.03;5047007;28;30068;-57
2023/06/18 10:03:43;;;;;;;;;20.00;19.20;;;;;28.80;43.63;100352.69;5046032;28;29557;-57
2023/06/18 10:06:22;;;;;;;;;18.80;18.80;;;;;28.82;43.19;100341.91;5015401;27;29596;-58
2023/06/18 10:08:52;;;;;;;;;18.20;18.20;;;;;28.85;42.75;100357.34;5020336;28;30958;-59
2023/06/18 10:11:19;;;;;;;;;19.00;17.80;;;;;28.66;43.18;100338.91;5008807;28;44671;-60
2023/06/18 10:13:47;;;;;;;;;19.20;18.20;;;;;28.88;43.40;100359.47;5023344;28;29897;-59
2023/06/18 10:16:17;;;;;;;;;17.40;17.40;;;;;28.95;42.24;100357.75;5027982;28;29406;-59
2023/06/18 10:18:48;;;;;;;;;17.40;16.80;;;;;28.94;42.57;100355.28;5026860;28;29762;-58
2023/06/18 10:21:14;;;;;;;;;17.80;17.80;;;;;28.98;42.29;100355.41;5011419;28;29770;-58
2023/06/18 10:23:39;;;;;;;;;17.00;17.00;;;;;28.92;42.02;100335.84;5023259;28;34312;-58
2023/06/18 10:26:05;;;;;;;;;21.75;19.00;;;;;29.06;42.30;100341.19;5038010;28;29446;-58
2023/06/18 10:28:31;;;;;;;;;20.00;19.00;;;;;29.08;41.56;100343.69;5047209;28;30090;-59
2023/06/18 10:30:56;;;;;;;;;22.75;20.50;;;;;29.00;41.71;100336.09;5047318;28;30034;-58
2023/06/18 10:33:22;;;;;;;;;17.50;16.25;;;;;29.03;41.21;100336.22;5030543;28;29331;-60
2023/06/18 10:35:48;;;;;;;;;20.00;17.40;;;;;28.99;41.18;100340.94;5010874;28;29785;-57
2023/06/18 10:38:13;;;;;;;;;19.00;18.75;;;;;28.91;41.02;100336.22;5027754;28;29734;-58
2023/06/18 10:40:39;;;;;;;;;18.50;18.50;;;;;28.88;41.70;100340.56;5027857;28;30190;-57
2023/06/18 10:43:09;;;;;;;;;20.00;18.75;;;;;28.94;41.45;100333.53;5027885;28;42395;-53
2023/06/18 10:45:34;;;;;;;;;18.60;17.80;;;;;28.99;41.55;100328.81;5027971;28;44891;-53
2023/06/18 10:48:12;;;;;;;;;18.75;18.75;;;;;28.98;41.78;100324.34;5027812;28;29871;-56
2023/06/18 10:50:38;;;;;;;;;20.80;20.80;;;;;29.05;41.50;100325.44;5029619;28;29808;-60
2023/06/18 10:53:21;;;;;;;;;19.50;18.50;;;;;29.12;41.36;100332.50;5025855;28;29690;-57
2023/06/18 10:55:50;;;;;;;;;19.00;17.20;;;;;29.16;40.86;100322.16;5027614;28;29871;-61
2023/06/18 10:58:20;;;;;;;;;19.60;19.00;;;;;29.23;40.72;100316.75;5026907;28;39299;-55
2023/06/18 11:00:46;;;;;;;;;19.80;19.80;;;;;29.21;40.33;100314.28;5019799;28;39176;-58
2023/06/18 11:03:14;;;;;;;;;17.60;17.00;;;;;29.32;41.21;100319.47;5022608;28;34113;-56
2023/06/18 11:05:40;;;;;;;;;16.60;16.20;;;;;29.43;40.75;100315.03;5021052;28;45434;-51
2023/06/18 11:08:09;;;;;;;;;19.25;17.00;;;;;29.40;40.19;100289.47;5007162;28;46477;-54
2023/06/18 11:10:38;;;;;;;;;18.00;15.00;;;;;29.38;39.65;100294.66;5010683;28;29610;-55